createdAt,value
2018-06-13T00:00:35.620Z,89.25
2018-06-13T00:03:03.793Z,88.73
2018-06-13T00:05:31.962Z,89.52
2018-06-13T00:08:00.122Z,89.85
2018-06-13T00:10:28.299Z,89.11
2018-06-13T00:12:56.458Z,88.97
2018-06-13T00:15:24.615Z,88.93
2018-06-13T00:17:52.770Z,89.17
2018-06-13T00:20:20.934Z,88.80
2018-06-13T00:22:49.079Z,88.73
2018-06-13T00:25:17.303Z,88.82
2018-06-13T00:27:45.414Z,89.35
2018-06-13T00:30:13.570Z,89.60
2018-06-13T00:32:41.738Z,89.32
2018-06-13T00:35:09.890Z,89.23
2018-06-13T00:37:38.051Z,89.50
2018-06-13T00:40:06.211Z,89.58
2018-06-13T00:42:34.370Z,89.26
2018-06-13T00:45:03.078Z,89.05
2018-06-13T00:47:31.338Z,89.40
2018-06-13T00:49:59.573Z,88.72
2018-06-13T00:52:27.730Z,89.35
2018-06-13T00:54:55.888Z,88.97
2018-06-13T00:57:24.043Z,89.90
2018-06-13T00:59:52.207Z,89.99
2018-06-13T01:02:20.386Z,89.78
2018-06-13T01:04:48.550Z,89.93
2018-06-13T01:07:16.705Z,89.91
2018-06-13T01:09:44.898Z,89.84
2018-06-13T01:12:13.058Z,90.33
2018-06-13T01:14:41.248Z,90.28
2018-06-13T01:17:09.414Z,90.84
2018-06-13T01:19:37.571Z,90.71
2018-06-13T01:22:05.923Z,91.01
2018-06-13T01:24:34.075Z,90.78
2018-06-13T01:27:02.262Z,91.20
2018-06-13T01:29:30.411Z,91.26
2018-06-13T01:31:58.575Z,91.30
2018-06-13T01:34:26.739Z,91.35
2018-06-13T01:36:54.890Z,91.56
2018-06-13T01:39:23.062Z,91.57
2018-06-13T01:41:51.212Z,91.75
2018-06-13T01:44:19.366Z,91.79
2018-06-13T01:46:47.535Z,92.04
2018-06-13T01:49:15.688Z,91.98
2018-06-13T01:51:43.851Z,91.79
2018-06-13T01:54:12.011Z,91.97
2018-06-13T01:56:40.153Z,91.78
2018-06-13T01:59:08.314Z,91.63
2018-06-13T02:01:36.467Z,91.61
2018-06-13T02:04:04.630Z,91.26
2018-06-13T02:06:32.831Z,90.73
2018-06-13T02:09:00.994Z,90.53
2018-06-13T02:11:29.164Z,90.60
2018-06-13T02:13:57.318Z,90.87
2018-06-13T02:16:25.490Z,90.28
2018-06-13T02:18:53.646Z,90.06
2018-06-13T02:21:21.814Z,89.78
2018-06-13T02:23:49.977Z,89.37
2018-06-13T02:26:18.146Z,89.70
2018-06-13T02:28:46.326Z,89.90
2018-06-13T02:31:14.499Z,89.70
2018-06-13T02:33:42.655Z,89.47
2018-06-13T02:36:10.811Z,89.69
2018-06-13T02:38:38.975Z,89.61
2018-06-13T02:41:07.178Z,88.95
2018-06-13T02:43:35.342Z,89.45
2018-06-13T02:46:03.491Z,89.58
2018-06-13T02:48:31.671Z,90.33
2018-06-13T02:50:59.833Z,90.75
2018-06-13T02:53:28.034Z,91.17
2018-06-13T02:55:56.227Z,91.84
2018-06-13T02:58:24.394Z,90.93
2018-06-13T03:00:52.558Z,90.39
2018-06-13T03:03:20.712Z,89.94
2018-06-13T03:05:48.889Z,89.40
2018-06-13T03:08:17.054Z,89.39
2018-06-13T03:10:45.214Z,88.68
2018-06-13T03:13:13.395Z,89.24
2018-06-13T03:15:41.537Z,89.30
2018-06-13T03:18:09.727Z,89.62
2018-06-13T03:20:37.885Z,89.66
2018-06-13T03:23:06.047Z,90.62
2018-06-13T03:25:34.222Z,90.81
2018-06-13T03:28:02.385Z,90.76
2018-06-13T03:30:30.551Z,90.82
2018-06-13T03:32:58.702Z,91.04
2018-06-13T03:35:26.866Z,90.89
2018-06-13T03:37:55.023Z,91.92
2018-06-13T03:40:23.202Z,91.71
2018-06-13T03:42:51.367Z,91.94
2018-06-13T03:45:19.539Z,91.77
2018-06-13T03:47:47.704Z,91.37
2018-06-13T03:50:15.866Z,92.00
2018-06-13T03:52:44.038Z,92.03
2018-06-13T03:55:12.194Z,92.88
2018-06-13T03:57:40.358Z,93.16
2018-06-13T04:00:08.537Z,93.22
2018-06-13T04:02:36.711Z,92.63
2018-06-13T04:05:04.871Z,92.19
2018-06-13T04:07:33.059Z,92.15
2018-06-13T04:10:01.224Z,92.41
2018-06-13T04:12:29.379Z,92.80
2018-06-13T04:14:57.543Z,92.97
2018-06-13T04:17:25.699Z,91.47
2018-06-13T04:19:53.879Z,92.19
2018-06-13T04:22:22.071Z,91.83
2018-06-13T04:24:50.222Z,91.02
2018-06-13T04:27:18.392Z,91.50
2018-06-13T04:29:46.542Z,92.16
2018-06-13T04:32:14.710Z,90.83
2018-06-13T04:34:42.866Z,90.88
2018-06-13T04:37:11.055Z,89.30
2018-06-13T04:39:39.210Z,89.68
2018-06-13T04:42:07.395Z,89.52
2018-06-13T04:44:35.558Z,90.34
2018-06-13T04:47:03.718Z,89.79
2018-06-13T04:49:31.882Z,89.75
2018-06-13T04:52:00.058Z,89.30
2018-06-13T04:54:28.211Z,89.80
2018-06-13T04:56:56.403Z,89.77
2018-06-13T04:59:24.586Z,88.88
2018-06-13T05:01:59.638Z,88.53
2018-06-13T05:04:27.815Z,88.78
2018-06-13T05:06:56.017Z,89.27
2018-06-13T05:09:24.187Z,88.56
2018-06-13T05:11:52.361Z,89.27
2018-06-13T05:14:20.538Z,88.98
2018-06-13T05:16:48.702Z,88.11
2018-06-13T05:19:16.874Z,87.50
2018-06-13T05:21:45.055Z,88.15
2018-06-13T05:24:13.236Z,87.32
2018-06-13T05:26:41.402Z,87.05
2018-06-13T05:29:09.574Z,87.72
2018-06-13T05:31:37.745Z,86.98
2018-06-13T05:34:06.055Z,87.95
2018-06-13T05:36:34.246Z,87.26
2018-06-13T05:39:02.411Z,87.48
2018-06-13T05:41:30.598Z,85.90
2018-06-13T05:43:58.770Z,85.87
2018-06-13T05:46:26.938Z,84.54
2018-06-13T05:48:55.142Z,86.33
2018-06-13T05:51:23.310Z,85.54
2018-06-13T05:53:51.490Z,84.44
2018-06-13T05:56:19.647Z,83.92
2018-06-13T05:58:47.821Z,83.39
2018-06-13T06:01:16.007Z,81.63
2018-06-13T06:03:44.171Z,82.18
2018-06-13T06:06:12.347Z,81.96
2018-06-13T06:08:40.506Z,82.62
2018-06-13T06:11:08.678Z,82.42
2018-06-13T06:13:36.834Z,81.03
2018-06-13T06:16:04.995Z,80.77
2018-06-13T06:18:33.148Z,81.19
2018-06-13T06:21:01.323Z,80.33
2018-06-13T06:23:29.489Z,79.56
2018-06-13T06:25:57.750Z,78.42
2018-06-13T06:28:25.911Z,79.82
2018-06-13T06:30:54.071Z,78.94
2018-06-13T06:33:22.242Z,81.04
2018-06-13T06:35:50.410Z,79.54
2018-06-13T06:38:18.583Z,80.03
2018-06-13T06:40:46.762Z,79.04
2018-06-13T06:43:14.927Z,78.39
2018-06-13T06:45:43.099Z,77.95
2018-06-13T06:48:11.299Z,78.11
2018-06-13T06:50:39.458Z,77.33
2018-06-13T06:53:13.846Z,77.38
2018-06-13T06:55:42.044Z,76.14
2018-06-13T06:58:10.183Z,76.56
2018-06-13T07:00:38.394Z,75.25
2018-06-13T07:03:06.577Z,74.13
2018-06-13T07:05:34.734Z,76.09
2018-06-13T07:08:02.903Z,76.07
2018-06-13T07:10:31.071Z,76.64
2018-06-13T07:12:59.247Z,77.72
2018-06-13T07:15:27.404Z,76.02
2018-06-13T07:17:55.582Z,75.68
2018-06-13T07:20:23.743Z,74.56
2018-06-13T07:22:52.190Z,74.96
2018-06-13T07:25:20.354Z,75.46
2018-06-13T07:27:48.528Z,74.97
2018-06-13T07:30:16.694Z,73.67
2018-06-13T07:32:44.862Z,74.80
2018-06-13T07:35:13.031Z,74.82
2018-06-13T07:37:41.190Z,74.49
2018-06-13T07:40:09.351Z,72.88
2018-06-13T07:42:37.511Z,71.39
2018-06-13T07:45:05.688Z,71.64
2018-06-13T07:47:33.850Z,70.38
2018-06-13T07:50:02.025Z,69.27
2018-06-13T07:52:30.178Z,69.86
2018-06-13T07:54:58.338Z,68.10
2018-06-13T07:57:26.526Z,68.08
2018-06-13T07:59:54.683Z,69.43
2018-06-13T08:02:22.867Z,67.97
2018-06-13T08:04:51.048Z,67.79
2018-06-13T08:07:19.223Z,67.97
2018-06-13T08:09:47.442Z,68.78
2018-06-13T08:12:15.618Z,68.34
2018-06-13T08:14:43.782Z,71.37
2018-06-13T08:17:11.948Z,68.53
2018-06-13T08:19:40.126Z,68.73
2018-06-13T08:22:08.296Z,68.50
2018-06-13T08:24:47.855Z,69.39
2018-06-13T08:27:16.022Z,68.21
2018-06-13T08:29:44.187Z,69.04
2018-06-13T08:32:12.354Z,69.71
2018-06-13T08:34:40.522Z,69.28
2018-06-13T08:37:08.692Z,70.50
2018-06-13T08:39:36.850Z,69.97
2018-06-13T08:42:05.039Z,68.17
2018-06-13T08:44:33.194Z,69.91
2018-06-13T08:47:01.398Z,68.22
2018-06-13T08:49:29.570Z,67.00
2018-06-13T08:51:57.747Z,66.89
2018-06-13T08:54:25.902Z,67.80
2018-06-13T08:56:54.067Z,68.47
2018-06-13T08:59:22.238Z,66.12
2018-06-13T09:01:50.419Z,65.55
2018-06-13T09:04:18.587Z,66.83
2018-06-13T09:06:46.762Z,66.21
2018-06-13T09:09:14.923Z,65.39
2018-06-13T09:11:43.682Z,66.61
2018-06-13T09:14:11.875Z,68.20
2018-06-13T09:16:40.043Z,67.04
2018-06-13T09:19:08.206Z,67.35
2018-06-13T09:21:36.369Z,66.02
2018-06-13T09:24:04.550Z,65.59
2018-06-13T09:26:32.714Z,65.77
2018-06-13T09:29:00.870Z,66.74
2018-06-13T09:31:29.038Z,67.59
2018-06-13T09:33:57.203Z,66.31
2018-06-13T09:36:25.378Z,65.25
2018-06-13T09:38:53.547Z,66.80
2018-06-13T09:41:21.710Z,65.85
2018-06-13T09:43:49.883Z,65.81
2018-06-13T09:46:18.051Z,65.94
2018-06-13T09:48:46.227Z,66.98
2018-06-13T09:51:14.387Z,66.94
2018-06-13T09:53:42.550Z,69.57
2018-06-13T09:56:10.715Z,69.63
2018-06-13T10:00:48.903Z,68.68
2018-06-13T10:03:17.078Z,68.39
2018-06-13T10:05:45.254Z,67.42
2018-06-13T10:08:13.442Z,66.69
2018-06-13T10:10:41.607Z,67.19
2018-06-13T10:13:09.788Z,65.72
2018-06-13T10:15:37.947Z,66.33
2018-06-13T10:18:06.262Z,65.98
2018-06-13T10:20:34.439Z,68.37
2018-06-13T10:23:02.610Z,67.72
2018-06-13T10:25:30.844Z,68.04
2018-06-13T10:27:58.975Z,68.42
2018-06-13T10:30:27.142Z,65.52
2018-06-13T10:32:55.306Z,66.60
2018-06-13T10:35:23.507Z,66.13
2018-06-13T10:37:51.671Z,65.56
2018-06-13T10:40:19.846Z,64.08
2018-06-13T10:42:48.014Z,63.64
2018-06-13T10:45:16.175Z,63.91
2018-06-13T10:47:44.339Z,66.12
2018-06-13T10:50:12.509Z,64.62
2018-06-13T10:52:40.686Z,64.56
2018-06-13T10:55:08.847Z,63.47
2018-06-13T10:57:37.031Z,63.80
2018-06-13T11:00:05.438Z,62.28
2018-06-13T11:02:33.615Z,63.28
2018-06-13T11:05:01.797Z,63.39
2018-06-13T11:07:29.987Z,63.31
2018-06-13T11:09:58.150Z,61.69
2018-06-13T11:12:26.302Z,61.99
2018-06-13T11:14:54.463Z,61.83
2018-06-13T11:17:22.630Z,62.93
2018-06-13T11:19:50.791Z,62.28
2018-06-13T11:22:18.935Z,63.13
2018-06-13T11:24:47.147Z,67.33
2018-06-13T11:27:15.306Z,66.61
2018-06-13T11:29:43.481Z,67.88
2018-06-13T11:32:11.656Z,68.05
2018-06-13T11:34:39.835Z,67.90
2018-06-13T11:37:08.002Z,69.06
2018-06-13T11:39:36.170Z,68.36
2018-06-13T11:42:04.346Z,67.13
2018-06-13T11:44:32.551Z,66.67
2018-06-13T11:47:00.739Z,66.11
2018-06-13T11:49:28.904Z,66.84
2018-06-13T11:51:57.074Z,66.62
2018-06-13T11:54:25.439Z,66.91
2018-06-13T11:56:53.623Z,68.50
2018-06-13T11:59:21.778Z,68.55
2018-06-13T12:01:50.019Z,67.70
2018-06-13T12:04:18.130Z,67.43
2018-06-13T12:06:46.305Z,67.59
2018-06-13T12:09:14.486Z,67.06
2018-06-13T12:11:42.727Z,67.60
2018-06-13T12:14:10.895Z,65.53
2018-06-13T12:16:39.067Z,65.46
2018-06-13T12:19:07.254Z,65.74
2018-06-13T12:21:35.436Z,67.73
2018-06-13T12:24:03.614Z,66.63
2018-06-13T12:26:31.770Z,67.25
2018-06-13T12:28:59.934Z,68.73
2018-06-13T12:31:28.103Z,67.49
2018-06-13T12:33:56.287Z,66.15
2018-06-13T12:36:24.442Z,65.76
2018-06-13T12:38:52.598Z,65.79
2018-06-13T12:41:20.775Z,66.01
2018-06-13T12:43:48.959Z,66.09
2018-06-13T12:46:17.125Z,66.93
2018-06-13T12:48:45.286Z,64.26
2018-06-13T12:51:13.456Z,65.74
2018-06-13T12:53:41.627Z,64.73
2018-06-13T12:56:09.795Z,66.10
2018-06-13T12:58:38.065Z,64.64
2018-06-13T13:01:06.175Z,60.96
2018-06-13T13:03:34.338Z,62.24
2018-06-13T13:06:02.523Z,62.67
2018-06-13T13:08:30.678Z,61.78
2018-06-13T13:10:58.848Z,59.48
2018-06-13T13:13:26.999Z,60.79
2018-06-13T13:15:55.158Z,62.29
2018-06-13T13:18:23.342Z,62.28
2018-06-13T13:20:51.518Z,62.29
2018-06-13T13:23:19.693Z,63.74
2018-06-13T13:25:47.879Z,63.39
2018-06-13T13:28:16.043Z,62.80
2018-06-13T13:30:44.219Z,63.83
2018-06-13T13:33:12.391Z,63.95
2018-06-13T13:35:40.581Z,62.34
2018-06-13T13:38:08.710Z,62.25
2018-06-13T13:40:36.875Z,62.16
2018-06-13T13:43:05.034Z,58.70
2018-06-13T13:45:33.236Z,59.19
2018-06-13T13:48:01.380Z,57.94
2018-06-13T13:50:29.557Z,57.17
2018-06-13T13:52:57.722Z,56.44
2018-06-13T13:55:25.883Z,56.78
2018-06-13T13:57:54.038Z,56.13
2018-06-13T14:00:22.214Z,56.62
2018-06-13T14:02:50.379Z,54.64
2018-06-13T14:05:18.550Z,54.19
2018-06-13T14:07:46.720Z,57.66
2018-06-13T14:10:14.915Z,57.81
2018-06-13T14:12:43.070Z,57.94
2018-06-13T14:15:11.239Z,58.40
2018-06-13T14:17:39.398Z,59.47
2018-06-13T14:20:07.806Z,60.37
2018-06-13T14:22:36.006Z,59.44
2018-06-13T14:25:04.168Z,60.77
2018-06-13T14:27:32.331Z,60.53
2018-06-13T14:30:00.507Z,58.95
2018-06-13T14:32:28.667Z,58.38
2018-06-13T14:34:56.851Z,57.73
2018-06-13T14:37:25.105Z,58.26
2018-06-13T14:39:53.367Z,58.19
2018-06-13T14:42:21.555Z,59.60
2018-06-13T14:44:49.726Z,58.48
2018-06-13T14:47:17.922Z,60.59
2018-06-13T14:49:46.142Z,58.26
2018-06-13T14:52:14.350Z,59.59
2018-06-13T14:54:42.566Z,59.35
2018-06-13T14:57:10.740Z,56.60
2018-06-13T14:59:39.297Z,57.18
2018-06-13T15:02:07.506Z,55.96
2018-06-13T15:04:36.125Z,56.52
2018-06-13T15:07:05.682Z,56.93
2018-06-13T15:09:33.868Z,56.23
2018-06-13T15:12:02.404Z,56.71
2018-06-13T15:14:30.837Z,54.31
2018-06-13T15:16:59.018Z,54.81
2018-06-13T15:19:27.179Z,55.79
2018-06-13T15:21:55.335Z,56.12
2018-06-13T15:24:23.518Z,53.67
2018-06-13T15:26:51.704Z,52.54
2018-06-13T15:29:19.918Z,54.95
2018-06-13T15:31:48.143Z,55.44
2018-06-13T15:34:16.310Z,55.13
2018-06-13T15:36:44.462Z,55.97
2018-06-13T15:39:14.698Z,54.36
2018-06-13T15:41:43.607Z,53.54
2018-06-13T15:44:11.742Z,55.20
2018-06-13T15:46:39.942Z,54.29
2018-06-13T15:49:08.142Z,56.06
2018-06-13T15:51:36.430Z,53.98
2018-06-13T15:54:04.605Z,54.47
2018-06-13T15:56:32.761Z,55.61
2018-06-13T15:59:01.880Z,56.92
2018-06-13T16:01:30.062Z,58.27
2018-06-13T16:03:58.267Z,58.37
2018-06-13T16:06:26.430Z,58.39
2018-06-13T16:08:54.744Z,57.62
2018-06-13T16:11:22.910Z,56.70
2018-06-13T16:13:51.081Z,58.94
2018-06-13T16:16:19.250Z,57.68
2018-06-13T16:18:47.418Z,57.14
2018-06-13T16:21:15.587Z,55.59
2018-06-13T16:23:43.801Z,56.12
2018-06-13T16:26:11.983Z,56.33
2018-06-13T16:28:40.143Z,56.49
2018-06-13T16:31:08.340Z,55.81
2018-06-13T16:33:36.543Z,56.08
2018-06-13T16:36:04.707Z,55.30
2018-06-13T16:38:32.878Z,53.04
2018-06-13T16:41:01.042Z,53.64
2018-06-13T16:43:29.197Z,54.74
2018-06-13T16:45:57.358Z,52.61
2018-06-13T16:48:25.564Z,53.84
2018-06-13T16:51:05.060Z,52.85
2018-06-13T16:54:43.599Z,53.36
2018-06-13T16:57:11.763Z,52.67
2018-06-13T16:59:39.928Z,53.51
2018-06-13T17:02:08.094Z,54.10
2018-06-13T17:04:36.260Z,54.92
2018-06-13T17:07:04.686Z,52.20
2018-06-13T17:09:32.855Z,52.19
2018-06-13T17:12:01.022Z,52.85
2018-06-13T17:14:29.183Z,53.29
2018-06-13T17:16:57.350Z,51.98
2018-06-13T17:19:25.556Z,51.98
2018-06-13T17:21:53.822Z,51.69
2018-06-13T17:24:22.030Z,53.30
2018-06-13T17:26:50.233Z,52.85
2018-06-13T17:29:18.402Z,54.57
2018-06-13T17:31:46.580Z,53.63
2018-06-13T17:34:14.919Z,53.58
2018-06-13T17:36:43.090Z,53.50
2018-06-13T17:39:11.754Z,54.26
2018-06-13T17:41:40.040Z,53.01
2018-06-13T17:44:08.759Z,54.51
2018-06-13T17:46:36.978Z,54.40
2018-06-13T17:49:05.148Z,55.29
2018-06-13T17:51:33.342Z,56.44
2018-06-13T17:54:01.551Z,55.64
2018-06-13T17:56:29.706Z,56.72
2018-06-13T17:58:57.873Z,55.68
2018-06-13T18:01:26.163Z,56.62
2018-06-13T18:03:54.460Z,56.35
2018-06-13T18:06:22.606Z,56.12
2018-06-13T18:08:50.776Z,56.22
2018-06-13T18:11:18.942Z,55.64
2018-06-13T18:13:47.103Z,55.54
2018-06-13T18:16:15.278Z,55.18
2018-06-13T18:18:43.478Z,54.78
2018-06-13T18:21:11.691Z,55.18
2018-06-13T18:23:39.854Z,55.74
2018-06-13T18:26:08.039Z,54.49
2018-06-13T18:28:36.202Z,56.24
2018-06-13T18:31:04.406Z,55.33
2018-06-13T18:33:32.579Z,56.08
2018-06-13T18:36:00.753Z,55.30
2018-06-13T18:38:28.935Z,56.57
2018-06-13T18:40:57.103Z,56.53
2018-06-13T18:43:25.287Z,57.69
2018-06-13T18:45:53.455Z,56.54
2018-06-13T18:48:21.630Z,56.67
2018-06-13T18:50:49.807Z,56.78
2018-06-13T18:53:18.019Z,56.64
2018-06-13T18:55:46.195Z,57.65
2018-06-13T18:58:14.367Z,58.14
2018-06-13T19:00:42.547Z,57.17
2018-06-13T19:03:10.742Z,57.33
2018-06-13T19:05:38.914Z,56.77
2018-06-13T19:08:07.095Z,56.59
2018-06-13T19:10:35.294Z,57.40
2018-06-13T19:13:03.488Z,56.89
2018-06-13T19:15:31.983Z,58.34
2018-06-13T19:18:00.203Z,58.24
2018-06-13T19:20:28.527Z,58.68
2018-06-13T19:22:56.725Z,59.08
2018-06-13T19:25:24.895Z,58.83
2018-06-13T19:27:53.078Z,59.24
2018-06-13T19:30:21.306Z,59.66
2018-06-13T19:32:49.825Z,60.49
2018-06-13T19:35:17.995Z,60.78
2018-06-13T19:37:46.163Z,62.84
2018-06-13T19:40:14.338Z,63.47
2018-06-13T19:42:43.490Z,64.15
2018-06-13T19:45:11.675Z,64.70
2018-06-13T19:47:45.067Z,64.04
2018-06-13T19:50:13.246Z,65.11
2018-06-13T19:52:46.653Z,66.49
2018-06-13T19:55:20.240Z,66.91
2018-06-13T19:57:48.471Z,67.33
2018-06-13T20:00:16.590Z,68.18
2018-06-13T20:02:50.003Z,69.27
2018-06-13T20:05:23.406Z,69.87
2018-06-13T20:07:51.603Z,70.15
2018-06-13T20:10:19.751Z,70.18
2018-06-13T20:12:53.150Z,70.70
2018-06-13T20:15:26.715Z,72.00
2018-06-13T20:18:00.111Z,71.85
2018-06-13T20:20:28.270Z,72.58
2018-06-13T20:22:56.425Z,72.64
2018-06-13T20:25:29.980Z,73.22
2018-06-13T20:28:03.443Z,73.87
2018-06-13T20:30:36.966Z,75.08
2018-06-13T20:33:05.187Z,75.48
2018-06-13T20:35:33.347Z,75.88
2018-06-13T20:38:01.506Z,76.64
2018-06-13T20:40:29.703Z,77.13
2018-06-13T20:42:57.855Z,78.07
2018-06-13T20:45:26.016Z,78.31
2018-06-13T20:47:54.175Z,78.35
2018-06-13T20:50:22.342Z,78.48
2018-06-13T20:52:50.502Z,79.21
2018-06-13T20:55:18.666Z,79.34
2018-06-13T20:57:46.860Z,79.75
2018-06-13T21:00:15.019Z,79.70
2018-06-13T21:02:43.182Z,79.69
2018-06-13T21:05:11.343Z,79.41
2018-06-13T21:07:39.510Z,79.46
2018-06-13T21:10:07.688Z,79.65
2018-06-13T21:12:35.864Z,80.19
2018-06-13T21:15:04.047Z,80.11
2018-06-13T21:17:32.225Z,80.66
2018-06-13T21:20:00.392Z,80.80
2018-06-13T21:22:28.558Z,81.76
2018-06-13T21:24:56.698Z,82.07
2018-06-13T21:27:24.870Z,82.50
2018-06-13T21:29:53.294Z,82.75
2018-06-13T21:32:21.463Z,82.98
2018-06-13T21:34:49.710Z,83.39
2018-06-13T21:37:17.890Z,83.98
2018-06-13T21:39:46.054Z,83.92
2018-06-13T21:42:14.250Z,83.71
2018-06-13T21:44:42.554Z,84.41
2018-06-13T21:47:10.709Z,84.77
2018-06-13T21:49:38.862Z,84.84
2018-06-13T21:52:07.018Z,84.44
2018-06-13T21:54:35.194Z,84.76
2018-06-13T21:57:03.351Z,84.89
2018-06-13T21:59:31.504Z,85.21
2018-06-13T22:01:59.671Z,85.54
2018-06-13T22:04:27.830Z,84.90
2018-06-13T22:06:55.994Z,85.83
2018-06-13T22:09:24.167Z,85.33
2018-06-13T22:11:53.483Z,85.54
2018-06-13T22:14:22.663Z,85.32
2018-06-13T22:16:51.358Z,85.64
2018-06-13T22:19:19.850Z,85.85
2018-06-13T22:21:48.041Z,86.61
2018-06-13T22:24:16.206Z,86.44
2018-06-13T22:26:44.370Z,86.83
2018-06-13T22:29:12.546Z,87.25
2018-06-13T22:31:40.710Z,86.67
2018-06-13T22:34:09.101Z,87.34
2018-06-13T22:36:37.267Z,87.91
2018-06-13T22:39:07.920Z,87.55
2018-06-13T22:41:36.083Z,87.95
2018-06-13T22:44:04.310Z,87.75
2018-06-13T22:46:32.471Z,87.66
2018-06-13T22:49:00.799Z,87.57
2018-06-13T22:51:29.082Z,88.20
2018-06-13T22:53:57.451Z,88.29
2018-06-13T22:56:25.904Z,88.24
2018-06-13T22:58:54.085Z,87.36
2018-06-13T23:01:22.252Z,87.18
2018-06-13T23:03:50.425Z,86.43
2018-06-13T23:06:18.653Z,86.43
2018-06-13T23:08:46.803Z,87.12
2018-06-13T23:11:14.966Z,87.47
2018-06-13T23:13:43.167Z,87.86
2018-06-13T23:16:11.339Z,88.60
2018-06-13T23:18:39.520Z,88.88
2018-06-13T23:21:07.678Z,88.54
2018-06-13T23:23:35.835Z,88.47
2018-06-13T23:26:04.023Z,87.66
2018-06-13T23:28:32.195Z,88.03
2018-06-13T23:31:00.354Z,88.54
2018-06-13T23:33:28.534Z,88.41
2018-06-13T23:35:56.682Z,88.83
2018-06-13T23:38:24.837Z,89.77
2018-06-13T23:40:53.018Z,89.18
2018-06-13T23:43:21.185Z,89.63
2018-06-13T23:45:49.361Z,89.77
2018-06-13T23:48:17.550Z,90.46
2018-06-13T23:50:45.721Z,89.96
2018-06-13T23:53:13.887Z,90.29
2018-06-13T23:55:42.046Z,90.88
2018-06-13T23:58:10.214Z,91.34
